Ravensdale, WA

7:04 AM PDT on August 29, 2014 (GMT -0700)
McDonald Peak Trailhead | Change Station
CLOSE
Current Station
Personal Weather Station
Location: Ravensdale, WA
Elevation: 950 ft
Nearby Weather Stations

Elev 950 ft 47.36 °N, 121.89 °W | Updated 18 minutes ago

Mostly Cloudy
Mostly Cloudy
59.0 °F
Feels Like 59.0 °F
N
1.6
Wind Variable Wind from North
Gusts 1.6 mph

Today
High -- | Low -- °F
--% Chance of Precip.
Yesterday
High -- | Low -- °F
Precip. -- in
6:22 AM 7:53 PM
Waxing Crescent, 14% visible
Pressure 29.99 in
Visibility 10.0 miles
Clouds Overcast 1200 ft
Dew Point 59 °F
Humidity 99%
Rainfall 0.00 in
Snow Depth 0 in
UV 0 out of 12
Pollen 2.40 out of 12
PM2.5 Good
Flu Activity Not available.
METAR KRNT 291353Z 16004KT 10SM OVC012 17/15 A2997 RMK AO2 SLP155 T01670150

More Conditions Fewer Conditions

Pressure 29.99 in
Visibility 10.0 miles
Clouds Overcast 1200 ft
Dew Point 59 °F
Humidity 99%
Rainfall 0.00 in
Snow Depth 0 in
UV 0 out of 12
Pollen 2.40 out of 12
PM2.5 Good
Flu Activity Not available.
METAR KRNT 291353Z 16004KT 10SM OVC012 17/15 A2997 RMK AO2 SLP155 T01670150

More Conditions Fewer Conditions

10-Day Weather Forecast

Almanac

Astronomy

Aug. 29, 2014 Rise Set
Actual Time 6:22 AM PDT 7:53 PM PDT
Civil Twilight 5:50 AM PDT 8:25 PM PDT
Nautical Twilight 5:11 AM PDT 9:04 PM PDT
Astronomical Twilight 4:29 AM PDT 9:45 PM PDT
Moon 10:36 AM PDT 9:34 PM PDT
Length of Visible Light 14h 34m
Length of Day
13h 30m
Tomorrow will be 3m 15s shorter.
Waxing Crescent, 14% of the Moon is Illuminated
Today
Waxing Crescent
Sep 2
First Quarter
Sep 8
Full
Sep 15
Last Quarter
Sep 24
New

Today's Extremes

State Highs State Lows

Community

WunderPhotos

Upload Photos

1,748,240 photos uploaded!

Nearby

Air Quality

  Air Quality AQ Index Pollutant
Yesterday Good
PM2.5
Yesterday Good
OZONE
Current Good
PM2.5
Friday Good
OZONE
Friday Good
PM2.5
Saturday Good
OZONE
Saturday Good
PM2.5

Snow Depth

Station Depth Elevation
Mount Gardner 0 in 3000 ft
Meadows Pass 0 in 3500 ft
Olallie Meadows 3 in 3700 ft
Alpine Meadows 0 in 3500 ft
Morse Lake 0 in 5400 ft

Earthquake Activity

City Distance Mag. Time & Date
No recent earthquake activity has been reported nearby.
Minimum magnitude displayed is 2.5.

Coastal Water Temperatures

Place Temperature
Port Townsend, WA 54.0 °F
Seattle, WA 55.9 °F
Friday Harbor, WA 53.1 °F
Tacoma, WA 55.0 °F

Nearby Weather Stations